createdAt,value
2023-03-16T00:00:45.451Z,52.06
2023-03-16T00:03:13.258Z,52.77
2023-03-16T00:05:39.961Z,52.87
2023-03-16T00:08:06.623Z,52.64
2023-03-16T00:10:33.582Z,53.37
2023-03-16T00:13:00.284Z,52.41
2023-03-16T00:15:26.919Z,51.94
2023-03-16T00:17:53.512Z,52.20
2023-03-16T00:20:20.360Z,52.39
2023-03-16T00:22:46.990Z,51.31
2023-03-16T00:25:14.949Z,51.85
2023-03-16T00:27:41.638Z,53.08
2023-03-16T00:30:09.102Z,52.20
2023-03-16T00:32:37.872Z,52.49
2023-03-16T00:35:09.242Z,52.94
2023-03-16T00:37:36.317Z,53.47
2023-03-16T00:40:03.225Z,53.76
2023-03-16T00:42:30.644Z,53.10
2023-03-16T00:44:59.076Z,53.15
2023-03-16T00:47:27.524Z,54.03
2023-03-16T00:49:54.890Z,53.97
2023-03-16T00:52:21.858Z,54.75
2023-03-16T00:54:49.820Z,54.60
2023-03-16T00:57:18.477Z,55.04
2023-03-16T00:59:48.935Z,54.88
2023-03-16T01:02:17.823Z,55.82
2023-03-16T01:04:44.580Z,55.88
2023-03-16T01:07:14.178Z,54.88
2023-03-16T01:09:42.146Z,54.36
2023-03-16T01:12:12.605Z,53.77
2023-03-16T01:14:40.262Z,54.74
2023-03-16T01:17:09.016Z,55.56
2023-03-16T01:19:37.276Z,54.54
2023-03-16T01:22:05.498Z,54.74
2023-03-16T01:24:32.176Z,55.04
2023-03-16T01:26:59.005Z,55.11
2023-03-16T01:29:25.692Z,55.33
2023-03-16T01:31:52.391Z,54.21
2023-03-16T01:34:19.080Z,54.62
2023-03-16T01:36:49.875Z,56.14
2023-03-16T01:39:17.254Z,55.07
2023-03-16T01:41:46.219Z,54.69
2023-03-16T01:44:15.413Z,55.55
2023-03-16T01:46:42.202Z,55.81
2023-03-16T01:49:14.258Z,55.45
2023-03-16T01:51:50.600Z,55.93
2023-03-16T01:54:26.419Z,56.67
2023-03-16T01:57:02.340Z,56.58
2023-03-16T01:59:34.465Z,57.35
2023-03-16T02:02:02.771Z,56.24
2023-03-16T02:04:34.676Z,56.00
2023-03-16T02:07:01.853Z,55.63
2023-03-16T02:09:29.510Z,55.43
2023-03-16T02:11:57.115Z,55.57
2023-03-16T02:14:23.730Z,56.38
2023-03-16T02:16:52.007Z,56.77
2023-03-16T02:19:39.987Z,56.87
2023-03-16T02:22:08.982Z,58.20
2023-03-16T02:24:37.319Z,57.16
2023-03-16T02:27:08.894Z,57.02
2023-03-16T02:29:54.339Z,57.75
2023-03-16T02:32:24.649Z,58.23
2023-03-16T02:34:51.425Z,58.31
2023-03-16T02:37:18.114Z,57.88
2023-03-16T02:39:44.710Z,58.54
2023-03-16T02:42:18.498Z,59.34
2023-03-16T02:44:52.141Z,59.37
2023-03-16T02:47:40.726Z,58.60
2023-03-16T02:50:10.220Z,59.61
2023-03-16T02:52:38.860Z,60.38
2023-03-16T02:55:07.191Z,60.07
2023-03-16T02:57:34.077Z,59.98
2023-03-16T03:00:00.792Z,59.79
2023-03-16T03:02:27.533Z,60.01
2023-03-16T03:04:54.418Z,60.33
2023-03-16T03:07:21.913Z,59.12
2023-03-16T03:09:48.604Z,59.72
2023-03-16T03:12:15.279Z,59.89
2023-03-16T03:14:41.999Z,60.01
2023-03-16T03:17:10.284Z,60.21
2023-03-16T03:19:37.092Z,59.89
2023-03-16T03:22:04.917Z,59.49
2023-03-16T03:24:37.770Z,61.07
2023-03-16T03:27:04.380Z,59.93
2023-03-16T03:29:31.789Z,60.21
2023-03-16T03:31:58.615Z,60.34
2023-03-16T03:34:25.296Z,59.89
2023-03-16T03:36:51.891Z,61.58
2023-03-16T03:39:18.638Z,62.90
2023-03-16T03:41:45.293Z,62.76
2023-03-16T03:44:11.977Z,62.16
2023-03-16T03:46:40.000Z,61.65
2023-03-16T03:49:06.820Z,61.98
2023-03-16T03:51:33.813Z,61.83
2023-03-16T03:54:00.635Z,61.94
2023-03-16T03:56:27.530Z,62.53
2023-03-16T03:58:54.220Z,64.61
2023-03-16T04:01:20.925Z,64.36
2023-03-16T04:03:48.488Z,63.65
2023-03-16T04:06:15.332Z,63.32
2023-03-16T04:08:42.636Z,62.56
2023-03-16T04:11:09.377Z,63.33
2023-03-16T04:13:36.038Z,63.24
2023-03-16T04:16:02.742Z,63.59
2023-03-16T04:18:30.140Z,64.03
2023-03-16T04:20:56.791Z,64.39
2023-03-16T04:23:23.586Z,64.77
2023-03-16T04:25:50.248Z,65.35
2023-03-16T04:28:16.945Z,64.67
2023-03-16T04:30:43.670Z,64.80
2023-03-16T04:33:10.352Z,64.75
2023-03-16T04:35:37.079Z,64.89
2023-03-16T04:38:03.897Z,65.28
2023-03-16T04:40:30.504Z,64.65
2023-03-16T04:42:57.179Z,65.33
2023-03-16T04:45:24.039Z,65.58
2023-03-16T04:47:50.724Z,65.47
2023-03-16T04:50:17.415Z,66.29
2023-03-16T04:52:44.154Z,66.25
2023-03-16T04:55:10.895Z,66.15
2023-03-16T04:57:37.523Z,65.39
2023-03-16T05:00:04.796Z,66.33
2023-03-16T05:02:31.451Z,65.83
2023-03-16T05:04:58.123Z,66.34
2023-03-16T05:07:24.823Z,66.78
2023-03-16T05:09:51.461Z,66.60
2023-03-16T05:12:18.065Z,66.79
2023-03-16T05:14:44.694Z,66.05
2023-03-16T05:17:11.353Z,66.08
2023-03-16T05:19:37.988Z,66.14
2023-03-16T05:22:04.806Z,66.57
2023-03-16T05:24:31.583Z,66.95
2023-03-16T05:26:58.290Z,67.47
2023-03-16T05:29:24.971Z,66.63
2023-03-16T05:31:51.587Z,66.40
2023-03-16T05:34:18.236Z,66.88
2023-03-16T05:36:45.010Z,65.22
2023-03-16T05:39:11.645Z,65.44
2023-03-16T05:41:38.484Z,65.63
2023-03-16T05:44:05.353Z,67.21
2023-03-16T05:46:32.567Z,66.98
2023-03-16T05:48:59.419Z,67.62
2023-03-16T05:51:26.168Z,67.67
2023-03-16T05:53:53.928Z,68.44
2023-03-16T05:56:20.781Z,67.47
2023-03-16T05:58:47.411Z,67.79
2023-03-16T06:01:14.191Z,68.35
2023-03-16T06:03:40.863Z,67.72
2023-03-16T06:06:07.701Z,70.13
2023-03-16T06:08:34.616Z,70.66
2023-03-16T06:11:01.364Z,69.78
2023-03-16T06:13:28.006Z,69.85
2023-03-16T06:15:54.678Z,70.76
2023-03-16T06:18:21.508Z,69.79
2023-03-16T06:20:48.178Z,69.02
2023-03-16T06:23:14.888Z,69.02
2023-03-16T06:25:41.766Z,68.04
2023-03-16T06:28:08.613Z,68.36
2023-03-16T06:30:35.293Z,66.91
2023-03-16T06:33:01.916Z,66.40
2023-03-16T06:35:28.673Z,67.21
2023-03-16T06:37:55.411Z,67.16
2023-03-16T06:40:22.056Z,66.77
2023-03-16T06:42:48.760Z,66.60
2023-03-16T06:45:16.167Z,63.92
2023-03-16T06:47:43.788Z,62.85
2023-03-16T06:50:11.294Z,64.12
2023-03-16T06:52:38.397Z,61.77
2023-03-16T06:55:05.720Z,61.82
2023-03-16T06:57:32.365Z,61.64
2023-03-16T06:59:59.208Z,58.34
2023-03-16T07:02:25.822Z,59.12
2023-03-16T07:04:52.485Z,59.55
2023-03-16T07:07:19.234Z,58.68
2023-03-16T07:09:45.958Z,59.42
2023-03-16T07:12:12.618Z,58.20
2023-03-16T07:14:39.656Z,56.18
2023-03-16T07:17:06.412Z,54.65
2023-03-16T07:19:33.180Z,55.83
2023-03-16T07:21:59.823Z,54.51
2023-03-16T07:24:26.553Z,53.31
2023-03-16T07:26:53.457Z,53.07
2023-03-16T07:29:20.406Z,51.95
2023-03-16T07:31:47.314Z,52.46
2023-03-16T07:34:14.024Z,52.02
2023-03-16T07:36:40.754Z,52.17
2023-03-16T07:39:07.491Z,50.95
2023-03-16T07:41:34.139Z,50.71
2023-03-16T07:44:00.745Z,53.10
2023-03-16T07:46:27.588Z,49.65
2023-03-16T07:48:54.381Z,50.76
2023-03-16T07:51:21.159Z,49.20
2023-03-16T07:53:47.765Z,48.15
2023-03-16T07:56:14.484Z,49.27
2023-03-16T07:58:41.190Z,47.60
2023-03-16T08:01:08.144Z,47.88
2023-03-16T08:03:35.242Z,47.12
2023-03-16T08:06:01.996Z,47.46
2023-03-16T08:08:28.662Z,47.32
2023-03-16T08:10:56.698Z,47.63
2023-03-16T08:13:23.818Z,47.84
2023-03-16T08:15:51.839Z,47.81
2023-03-16T08:18:18.464Z,47.08
2023-03-16T08:20:45.057Z,46.89
2023-03-16T08:23:11.778Z,47.52
2023-03-16T08:25:38.370Z,47.78
2023-03-16T08:28:05.137Z,45.60
2023-03-16T08:30:32.132Z,45.53
2023-03-16T08:32:59.119Z,46.70
2023-03-16T08:35:25.967Z,46.29
2023-03-16T08:37:52.585Z,44.74
2023-03-16T08:40:19.582Z,45.54
2023-03-16T08:42:46.189Z,45.30
2023-03-16T08:45:14.367Z,44.88
2023-03-16T08:47:41.722Z,45.82
2023-03-16T08:50:09.369Z,44.81
2023-03-16T08:52:36.714Z,44.01
2023-03-16T08:55:07.414Z,44.53
2023-03-16T08:57:34.710Z,47.26
2023-03-16T09:00:01.906Z,45.03
2023-03-16T09:02:28.555Z,45.68
2023-03-16T09:04:55.177Z,43.65
2023-03-16T09:07:21.833Z,45.45
2023-03-16T09:09:48.594Z,43.00
2023-03-16T09:12:15.227Z,43.48
2023-03-16T09:14:41.868Z,44.04
2023-03-16T09:17:08.672Z,43.12
2023-03-16T09:19:50.694Z,42.76
2023-03-16T09:22:19.855Z,41.90
2023-03-16T09:24:47.433Z,40.79
2023-03-16T09:27:14.592Z,42.03
2023-03-16T09:29:42.464Z,40.30
2023-03-16T09:32:09.766Z,39.72
2023-03-16T09:34:36.428Z,40.38
2023-03-16T09:37:03.080Z,42.08
2023-03-16T09:39:29.825Z,40.39
2023-03-16T09:42:12.970Z,41.53
2023-03-16T09:45:04.128Z,41.12
2023-03-16T09:47:33.592Z,37.46
2023-03-16T09:50:05.500Z,38.27
2023-03-16T09:52:47.067Z,39.19
2023-03-16T09:55:24.683Z,40.02
2023-03-16T09:57:51.935Z,39.88
2023-03-16T10:00:25.517Z,38.25
2023-03-16T10:03:10.236Z,38.06
2023-03-16T10:05:37.853Z,36.66
2023-03-16T10:08:14.262Z,37.55
2023-03-16T10:10:59.884Z,36.42
2023-03-16T10:13:37.985Z,36.51
2023-03-16T10:16:35.804Z,36.60
2023-03-16T10:19:09.229Z,35.64
2023-03-16T10:21:40.091Z,36.40
2023-03-16T10:24:27.124Z,37.41
2023-03-16T10:26:57.232Z,34.48
2023-03-16T10:29:23.865Z,36.36
2023-03-16T10:31:50.564Z,36.38
2023-03-16T10:34:17.579Z,35.36
2023-03-16T10:36:45.536Z,38.70
2023-03-16T10:39:14.435Z,36.25
2023-03-16T10:41:48.045Z,33.98
2023-03-16T10:44:28.895Z,34.72
2023-03-16T10:47:06.974Z,36.19
2023-03-16T10:49:42.558Z,35.49
2023-03-16T10:52:23.025Z,34.42
2023-03-16T10:54:56.248Z,36.15
2023-03-16T10:57:34.544Z,33.60
2023-03-16T11:00:08.828Z,34.01
2023-03-16T11:02:35.791Z,35.66
2023-03-16T11:05:17.730Z,34.28
2023-03-16T11:08:08.839Z,33.07
2023-03-16T11:10:49.514Z,33.08
2023-03-16T11:13:21.945Z,33.07
2023-03-16T11:16:01.883Z,35.12
2023-03-16T11:18:37.279Z,33.67
2023-03-16T11:21:13.161Z,34.57
2023-03-16T11:23:48.152Z,34.06
2023-03-16T11:26:22.850Z,33.13
2023-03-16T11:29:05.030Z,35.01
2023-03-16T11:31:46.573Z,33.29
2023-03-16T11:34:18.898Z,33.54
2023-03-16T11:36:55.366Z,35.25
2023-03-16T11:39:33.819Z,30.62
2023-03-16T11:42:04.390Z,32.73
2023-03-16T11:44:36.924Z,30.48
2023-03-16T11:47:15.102Z,28.39
2023-03-16T11:49:41.739Z,29.52
2023-03-16T11:52:26.944Z,29.47
2023-03-16T11:55:18.830Z,31.26
2023-03-16T11:58:15.816Z,32.27
2023-03-16T12:00:55.034Z,30.57
2023-03-16T12:03:36.945Z,31.14
2023-03-16T12:06:26.554Z,29.94
2023-03-16T12:09:17.856Z,29.40
2023-03-16T12:12:02.687Z,30.68
2023-03-16T12:14:47.380Z,28.98
2023-03-16T12:17:22.379Z,28.19
2023-03-16T12:20:01.535Z,29.06
2023-03-16T12:22:34.010Z,29.82
2023-03-16T12:25:00.724Z,27.88
2023-03-16T12:27:33.875Z,28.16
2023-03-16T12:30:36.893Z,27.92
2023-03-16T12:33:18.722Z,27.31
2023-03-16T12:35:55.643Z,24.69
2023-03-16T12:38:25.161Z,26.35
2023-03-16T12:41:03.722Z,26.74
2023-03-16T12:43:50.015Z,25.97
2023-03-16T12:46:38.632Z,24.98
2023-03-16T12:49:07.800Z,27.82
2023-03-16T12:51:34.326Z,26.31
2023-03-16T12:54:00.966Z,25.80
2023-03-16T12:56:33.754Z,26.21
2023-03-16T12:59:04.427Z,26.97
2023-03-16T13:01:38.733Z,26.44
2023-03-16T13:04:30.714Z,25.90
2023-03-16T13:07:07.766Z,26.06
2023-03-16T13:09:41.202Z,25.97
2023-03-16T13:12:08.293Z,25.14
2023-03-16T13:14:40.315Z,24.91
2023-03-16T13:17:15.724Z,26.28
2023-03-16T13:19:58.120Z,24.97
2023-03-16T13:22:42.602Z,23.95
2023-03-16T13:25:17.982Z,24.42
2023-03-16T13:27:49.469Z,22.65
2023-03-16T13:30:21.253Z,25.96
2023-03-16T13:32:49.054Z,22.71
2023-03-16T13:35:17.752Z,25.09
2023-03-16T13:37:46.074Z,23.93
2023-03-16T13:40:24.993Z,27.30
2023-03-16T13:42:52.157Z,23.80
2023-03-16T13:45:38.771Z,27.31
2023-03-16T13:48:05.598Z,23.20
2023-03-16T13:50:33.581Z,25.38
2023-03-16T13:53:04.511Z,24.45
2023-03-16T13:55:36.579Z,24.63
2023-03-16T13:58:04.867Z,24.47
2023-03-16T14:00:35.761Z,22.96
2023-03-16T14:03:35.869Z,23.39
2023-03-16T14:06:03.427Z,24.93
2023-03-16T14:08:31.464Z,24.41
2023-03-16T14:11:01.235Z,24.49
2023-03-16T14:13:28.315Z,22.26
2023-03-16T14:15:58.259Z,24.89
2023-03-16T14:18:34.599Z,23.86
2023-03-16T14:21:07.687Z,23.18
2023-03-16T14:23:41.866Z,25.12
2023-03-16T14:26:19.562Z,23.79
2023-03-16T14:29:07.679Z,25.54
2023-03-16T14:31:39.251Z,23.30
2023-03-16T14:34:21.469Z,24.62
2023-03-16T14:36:48.226Z,21.91
2023-03-16T14:39:17.085Z,23.72
2023-03-16T14:41:44.262Z,24.10
2023-03-16T14:44:28.835Z,24.90
2023-03-16T14:46:55.757Z,23.93
2023-03-16T14:49:28.860Z,22.73
2023-03-16T14:52:03.327Z,21.84
2023-03-16T14:54:30.270Z,23.46
2023-03-16T14:57:03.135Z,23.51
2023-03-16T14:59:29.969Z,24.26
2023-03-16T15:01:57.338Z,23.95
2023-03-16T15:04:35.170Z,25.33
2023-03-16T15:07:25.212Z,23.13
2023-03-16T15:09:54.082Z,23.96
2023-03-16T15:12:22.425Z,23.29
2023-03-16T15:14:49.025Z,23.77
2023-03-16T15:17:15.645Z,23.02
2023-03-16T15:19:42.311Z,22.96
2023-03-16T15:22:12.182Z,24.27
2023-03-16T15:24:39.504Z,24.06
2023-03-16T15:27:21.135Z,23.83
2023-03-16T15:29:47.809Z,23.77
2023-03-16T15:32:15.162Z,21.75
2023-03-16T15:34:41.806Z,22.97
2023-03-16T15:37:26.642Z,21.31
2023-03-16T15:39:53.260Z,20.81
2023-03-16T15:42:19.907Z,22.60
2023-03-16T15:44:46.790Z,21.94
2023-03-16T15:47:14.069Z,23.15
2023-03-16T15:49:47.798Z,23.29
2023-03-16T15:52:36.474Z,22.29
2023-03-16T15:55:03.624Z,22.43
2023-03-16T15:57:34.718Z,23.15
2023-03-16T16:00:01.475Z,21.59
2023-03-16T16:02:32.631Z,24.66
2023-03-16T16:04:59.311Z,22.81
2023-03-16T16:07:26.044Z,23.95
2023-03-16T16:09:52.639Z,23.46
2023-03-16T16:12:20.820Z,25.80
2023-03-16T16:14:47.513Z,25.56
2023-03-16T16:17:15.332Z,25.48
2023-03-16T16:19:41.926Z,24.28
2023-03-16T16:22:11.798Z,24.65
2023-03-16T16:24:38.845Z,23.97
2023-03-16T16:27:06.619Z,24.00
2023-03-16T16:29:33.408Z,25.96
2023-03-16T16:32:00.312Z,25.83
2023-03-16T16:34:27.114Z,26.67
2023-03-16T16:36:55.289Z,27.31
2023-03-16T16:39:22.708Z,25.42
2023-03-16T16:41:51.801Z,26.52
2023-03-16T16:44:21.664Z,26.41
2023-03-16T16:46:50.136Z,26.03
2023-03-16T16:49:21.277Z,26.84
2023-03-16T16:51:48.055Z,26.67
2023-03-16T16:54:20.653Z,27.54
2023-03-16T16:56:50.044Z,27.57
2023-03-16T16:59:37.430Z,28.31
2023-03-16T17:02:42.420Z,28.25
2023-03-16T17:05:44.381Z,29.67
2023-03-16T17:08:11.749Z,30.62
2023-03-16T17:10:38.691Z,29.82
2023-03-16T17:13:05.447Z,30.55
2023-03-16T17:15:32.735Z,30.92
2023-03-16T17:18:03.569Z,30.87
2023-03-16T17:20:30.480Z,31.46
2023-03-16T17:22:58.343Z,32.14
2023-03-16T17:25:25.138Z,32.37
2023-03-16T17:27:53.835Z,32.06
2023-03-16T17:30:29.140Z,32.33
2023-03-16T17:33:03.621Z,31.97
2023-03-16T17:35:30.792Z,32.53
2023-03-16T17:37:57.554Z,31.52
2023-03-16T17:40:25.242Z,31.91
2023-03-16T17:42:54.254Z,32.29
2023-03-16T17:45:28.045Z,32.86
2023-03-16T17:47:55.210Z,33.02
2023-03-16T17:50:28.369Z,32.59
2023-03-16T17:52:55.784Z,33.14
2023-03-16T17:55:23.521Z,32.53
2023-03-16T17:57:52.467Z,32.81
2023-03-16T18:00:31.234Z,32.24
2023-03-16T18:03:19.134Z,32.59
2023-03-16T18:05:46.067Z,32.81
2023-03-16T18:08:18.570Z,32.88
2023-03-16T18:10:47.166Z,32.81
2023-03-16T18:13:20.950Z,33.46
2023-03-16T18:15:47.683Z,34.10
2023-03-16T18:18:19.378Z,34.31
2023-03-16T18:20:46.083Z,35.32
2023-03-16T18:23:21.678Z,36.60
2023-03-16T18:25:50.684Z,37.00
2023-03-16T18:28:18.040Z,35.31
2023-03-16T18:30:48.298Z,36.06
2023-03-16T18:33:26.042Z,34.70
2023-03-16T18:35:54.260Z,34.16
2023-03-16T18:38:36.238Z,34.24
2023-03-16T18:41:17.692Z,35.00
2023-03-16T18:43:44.569Z,35.25
2023-03-16T18:46:26.726Z,35.31
2023-03-16T18:48:58.666Z,37.07
2023-03-16T18:51:26.023Z,37.48
2023-03-16T18:53:53.145Z,37.80
2023-03-16T18:56:23.788Z,37.60
2023-03-16T18:58:51.665Z,37.20
2023-03-16T19:01:25.102Z,37.83
2023-03-16T19:03:52.614Z,37.31
2023-03-16T19:06:24.681Z,38.07
2023-03-16T19:08:51.933Z,38.58
2023-03-16T19:11:18.674Z,40.35
2023-03-16T19:13:45.291Z,39.59
2023-03-16T19:16:18.865Z,39.33
2023-03-16T19:18:46.131Z,39.85
2023-03-16T19:21:17.814Z,40.13
2023-03-16T19:23:52.057Z,40.74
2023-03-16T19:26:18.673Z,40.43
2023-03-16T19:28:45.392Z,41.22
2023-03-16T19:31:17.202Z,41.01
2023-03-16T19:33:44.023Z,40.97
2023-03-16T19:36:25.310Z,41.72
2023-03-16T19:38:52.470Z,41.68
2023-03-16T19:41:28.907Z,41.58
2023-03-16T19:44:06.649Z,41.54
2023-03-16T19:46:33.883Z,41.84
2023-03-16T19:49:00.460Z,42.25
2023-03-16T19:51:27.281Z,42.42
2023-03-16T19:53:53.941Z,42.61
2023-03-16T19:56:22.002Z,42.46
2023-03-16T19:58:51.946Z,43.25
2023-03-16T20:01:21.320Z,42.24
2023-03-16T20:03:49.276Z,42.37
2023-03-16T20:06:18.284Z,42.65
2023-03-16T20:08:46.618Z,43.11
2023-03-16T20:11:28.591Z,43.83
2023-03-16T20:13:56.630Z,43.61
2023-03-16T20:16:29.275Z,44.45
2023-03-16T20:18:58.624Z,44.61
2023-03-16T20:21:25.746Z,44.07
2023-03-16T20:23:53.544Z,44.33
2023-03-16T20:26:26.426Z,44.42
2023-03-16T20:28:53.739Z,44.18
2023-03-16T20:31:29.851Z,44.60
2023-03-16T20:33:56.745Z,45.36
2023-03-16T20:36:24.670Z,45.80
2023-03-16T20:38:51.411Z,45.95
2023-03-16T20:41:24.722Z,45.74
2023-03-16T20:43:52.500Z,46.47
2023-03-16T20:46:25.386Z,46.87
2023-03-16T20:48:52.158Z,45.98
2023-03-16T20:51:19.313Z,46.65
2023-03-16T20:53:47.506Z,47.10
2023-03-16T20:56:19.963Z,46.36
2023-03-16T20:58:49.158Z,46.55
2023-03-16T21:01:18.680Z,47.29
2023-03-16T21:03:50.632Z,47.45
2023-03-16T21:06:21.655Z,47.17
2023-03-16T21:08:49.826Z,46.06
2023-03-16T21:11:37.414Z,46.82
2023-03-16T21:14:06.286Z,47.01
2023-03-16T21:16:33.325Z,47.40
2023-03-16T21:18:59.944Z,47.34
2023-03-16T21:21:26.629Z,47.58
2023-03-16T21:23:53.234Z,46.54
2023-03-16T21:26:23.147Z,47.48
2023-03-16T21:28:58.370Z,47.79
2023-03-16T21:31:26.544Z,47.09
2023-03-16T21:33:54.815Z,47.48
2023-03-16T21:36:23.696Z,47.88
2023-03-16T21:38:51.143Z,48.41
2023-03-16T21:41:17.763Z,47.93
2023-03-16T21:43:44.613Z,49.05
2023-03-16T21:46:23.295Z,48.08
2023-03-16T21:48:53.513Z,48.98
2023-03-16T21:51:27.668Z,48.86
2023-03-16T21:53:54.506Z,49.21
2023-03-16T21:56:23.117Z,48.73
2023-03-16T21:58:50.459Z,49.49
2023-03-16T22:01:29.116Z,49.33
2023-03-16T22:04:05.088Z,49.34
2023-03-16T22:06:32.712Z,50.10
2023-03-16T22:09:00.043Z,50.57
2023-03-16T22:11:29.349Z,50.79
2023-03-16T22:13:57.566Z,49.83
2023-03-16T22:16:29.566Z,49.18
2023-03-16T22:18:57.316Z,50.77
2023-03-16T22:21:41.991Z,50.47
2023-03-16T22:24:25.877Z,50.23
2023-03-16T22:26:52.904Z,50.73
2023-03-16T22:29:22.940Z,50.80
2023-03-16T22:31:53.114Z,51.21
2023-03-16T22:34:49.547Z,51.03
2023-03-16T22:37:27.794Z,50.61
2023-03-16T22:39:55.143Z,51.16
2023-03-16T22:42:36.633Z,50.37
2023-03-16T22:45:15.606Z,51.02
2023-03-16T22:47:42.414Z,51.63
2023-03-16T22:50:14.074Z,50.31
2023-03-16T22:52:40.851Z,50.17
2023-03-16T22:55:08.429Z,49.48
2023-03-16T22:57:35.085Z,50.86
2023-03-16T23:00:02.102Z,51.49
2023-03-16T23:02:29.015Z,51.95
2023-03-16T23:04:55.858Z,51.69
2023-03-16T23:07:22.539Z,51.03
2023-03-16T23:09:49.195Z,51.88
2023-03-16T23:12:20.719Z,51.68
2023-03-16T23:14:47.506Z,52.21
2023-03-16T23:17:17.385Z,52.84
2023-03-16T23:19:44.961Z,52.54
2023-03-16T23:22:12.218Z,52.43
2023-03-16T23:24:40.368Z,52.11
2023-03-16T23:27:19.153Z,52.34
2023-03-16T23:29:46.365Z,52.71
2023-03-16T23:32:13.450Z,52.11
2023-03-16T23:34:40.046Z,53.41
2023-03-16T23:37:06.688Z,52.79
2023-03-16T23:39:33.372Z,53.40
2023-03-16T23:42:00.212Z,53.53
2023-03-16T23:44:29.327Z,53.67
2023-03-16T23:46:56.381Z,53.45
2023-03-16T23:49:29.420Z,53.66
2023-03-16T23:51:58.245Z,53.10
2023-03-16T23:54:28.139Z,53.30
2023-03-16T23:56:54.779Z,53.91
2023-03-16T23:59:21.554Z,52.72
